Ce_breeze — ELSQ7 — position and weather

sailwx.info

Track history (hours):
 
Tides and Currents Weather Stations Pressure Air Temp Water Temp Dewpoint Dewpoint Depression Visibility Wind Speed Wind Dir Waves Ship Positions

Ce_breeze

Last reported at 2016-Aug-23 16:19 UTC. Time now 2016-Aug-24 04:55 UTC.
Position N 31°43' E 029°06'.

Length 240 m; draft 8 m.

Type: Tanker. MMSI: 636010400.

Date/timePositionNaut miles runAvg speedWind from/ knotsBaromVisibWave heightAir tempDewpointWater temp
2016-Aug-23 16:19N 31°43' E 029°06'  
2016-Aug-20 22:10N 31°09' E 029°35'0 0.0
2016-Aug-20 19:10N 31°08' E 029°35'0 0.0
2016-Aug-20 18:07N 31°08' E 029°35'0 0.0
2016-Aug-19 00:31N 31°08' E 029°35'0 0.0
2016-Aug-18 23:29N 31°08' E 029°35'0 0.4
2016-Aug-18 22:29N 31°08' E 029°35'2 2.5
2016-Aug-18 21:33N 31°10' E 029°34'2711.0
2016-Aug-18 19:09N 31°33' E 029°18'6512.9
2016-Aug-18 14:08N 32°28' E 028°39'2113.2
2016-Aug-18 12:33N 32°46' E 028°26'1312.9
2016-Aug-18 11:33N 32°57' E 028°18'33312.8
2016-Aug-17 09:28N 37°08' E 023°50'1213.3
2016-Aug-17 08:33N 37°20' E 023°50'1312.8
2016-Aug-17 07:34N 37°33' E 023°45'1212.0
2016-Aug-17 06:34N 37°44' E 023°40'9 9.0
2016-Aug-17 05:34N 37°50' E 023°32'1 0.7
2016-Aug-17 04:31N 37°50' E 023°31'0 0.0
2016-Aug-17 03:31N 37°50' E 023°31'0 0.0
2016-Aug-17 02:31N 37°50' E 023°31'0 0.0
2016-Aug-17 01:31N 37°50' E 023°31'0 0.1
2016-Aug-17 00:31N 37°50' E 023°31'0 0.1
2016-Aug-16 23:31N 37°50' E 023°31'0 0.0
2016-Aug-16 22:31N 37°50' E 023°31'0 0.0
2016-Aug-16 21:31N 37°50' E 023°31'0 0.0
2016-Aug-16 20:31N 37°50' E 023°31'0 0.0
2016-Aug-16 19:31N 37°50' E 023°31'0 0.1
2016-Aug-16 18:31N 37°50' E 023°31'0 0.1
2016-Aug-16 17:31N 37°50' E 023°31'0 0.0
2016-Aug-16 16:31N 37°50' E 023°31'0 0.2
2016-Aug-16 15:31N 37°50' E 023°31'0 0.1
2016-Aug-16 14:31N 37°50' E 023°31'0 0.2
2016-Aug-16 13:31N 37°50' E 023°31'0 0.1
2016-Aug-16 12:31N 37°50' E 023°31'0 0.0
2016-Aug-16 11:31N 37°50' E 023°31'0 0.1
2016-Aug-16 10:31N 37°50' E 023°31'4 3.9
2016-Aug-16 09:33N 37°53' E 023°34'6 5.7
2016-Aug-16 08:33N 37°58' E 023°33'4 4.0
2016-Aug-16 07:32N 38°01' E 023°36'0 0.0
2016-Aug-16 04:32N 38°01' E 023°36'0 0.0
2016-Aug-16 03:32N 38°01' E 023°36'0 0.0
2016-Aug-16 02:32N 38°01' E 023°36'0 0.0
2016-Aug-16 01:32N 38°01' E 023°36'0 0.0
2016-Aug-16 00:32N 38°01' E 023°36'0 0.0
2016-Aug-15 23:32N 38°01' E 023°36'0 0.0
2016-Aug-15 22:32N 38°01' E 023°36'0 0.0
2016-Aug-15 21:32N 38°01' E 023°36'0 0.0
2016-Aug-15 20:32N 38°01' E 023°36'0 0.0
2016-Aug-15 19:32N 38°01' E 023°36'0 0.0
2016-Aug-15 18:32N 38°01' E 023°36'0 0.0
2016-Aug-15 17:32N 38°01' E 023°36'0 0.0
2016-Aug-15 16:32N 38°01' E 023°36'0 0.0
2016-Aug-15 15:32N 38°01' E 023°36'0 0.0
2016-Aug-15 14:32N 38°01' E 023°36'0 0.0
2016-Aug-15 13:32N 38°01' E 023°36'0 0.0
2016-Aug-15 12:32N 38°01' E 023°36'0 0.0
2016-Aug-15 11:32N 38°01' E 023°36'0 0.0
2016-Aug-15 10:32N 38°01' E 023°36'0 0.0
2016-Aug-15 09:32N 38°01' E 023°36'0 0.0
2016-Aug-15 08:32N 38°01' E 023°36'0 0.0
2016-Aug-15 07:32N 38°01' E 023°36'0 0.0
2016-Aug-15 06:32N 38°01' E 023°36'0 0.0
2016-Aug-15 04:32N 38°01' E 023°36'0 0.0
2016-Aug-15 03:32N 38°01' E 023°36'0 0.0
2016-Aug-15 02:32N 38°01' E 023°36'0 0.0
2016-Aug-15 01:32N 38°01' E 023°36'0 0.0
2016-Aug-15 00:32N 38°01' E 023°36'0 0.0
2016-Aug-14 23:32N 38°01' E 023°36'0 0.0
2016-Aug-14 22:32N 38°01' E 023°36'0 0.0
2016-Aug-14 21:32N 38°01' E 023°36'0 0.0
2016-Aug-14 20:32N 38°01' E 023°36'0 0.0
2016-Aug-14 19:32N 38°01' E 023°36'0 0.0
2016-Aug-14 18:32N 38°01' E 023°36'0 0.0
2016-Aug-14 17:32N 38°01' E 023°36'0 0.0
2016-Aug-14 16:32N 38°01' E 023°36'0 0.0
2016-Aug-14 15:32N 38°01' E 023°36'0 0.0
2016-Aug-14 14:32N 38°01' E 023°36'0 0.0
2016-Aug-14 13:32N 38°01' E 023°36'0 0.0
2016-Aug-14 12:32N 38°01' E 023°36'0 0.0
2016-Aug-14 11:32N 38°01' E 023°36'0 0.0
2016-Aug-14 10:32N 38°01' E 023°36'0 0.0
2016-Aug-14 09:32N 38°01' E 023°36'0 0.0
2016-Aug-14 08:32N 38°01' E 023°36'0 0.0
2016-Aug-14 07:32N 38°01' E 023°36'0 0.0
2016-Aug-14 06:29N 38°01' E 023°36'3 1.7
2016-Aug-14 04:31N 38°01' E 023°31'0 0.0
2016-Aug-14 03:31N 38°01' E 023°31'0 0.0
2016-Aug-14 02:31N 38°01' E 023°31'0 0.0
2016-Aug-14 01:31N 38°01' E 023°31'0 0.0
2016-Aug-14 00:31N 38°01' E 023°31'0 0.0
2016-Aug-13 23:31N 38°01' E 023°31'0 0.0
2016-Aug-13 22:31N 38°01' E 023°31'0 0.0
2016-Aug-13 21:31N 38°01' E 023°31'0 0.0
2016-Aug-13 20:31N 38°01' E 023°31'0 0.0
2016-Aug-13 19:31N 38°01' E 023°31'0 0.0
2016-Aug-13 18:31N 38°01' E 023°31'0 0.0
2016-Aug-13 17:31N 38°01' E 023°31'2 2.3
2016-Aug-13 16:33N 37°59' E 023°33'  
Track history (hours):
 
Tides and Currents Weather Stations Pressure Air Temp Water Temp Dewpoint Dewpoint Depression Visibility Wind Speed Wind Dir Waves Ship Positions

Ce_breeze

Last reported at 2016-Aug-23 16:19 UTC. Time now 2016-Aug-24 04:55 UTC.
Position N 31°43' E 029°06'.

Length 240 m; draft 8 m.

Type: Tanker. MMSI: 636010400.

Date/timePositionNaut miles runAvg speedWind from/ knotsBaromVisibWave heightAir tempDewpointWater temp
2016-Aug-23 16:19N 31°43' E 029°06'  
2016-Aug-20 22:10N 31°09' E 029°35'0 0.0
2016-Aug-20 19:10N 31°08' E 029°35'0 0.0
2016-Aug-20 18:07N 31°08' E 029°35'0 0.0
2016-Aug-19 00:31N 31°08' E 029°35'0 0.0
2016-Aug-18 23:29N 31°08' E 029°35'0 0.4
2016-Aug-18 22:29N 31°08' E 029°35'2 2.5
2016-Aug-18 21:33N 31°10' E 029°34'2711.0
2016-Aug-18 19:09N 31°33' E 029°18'6512.9
2016-Aug-18 14:08N 32°28' E 028°39'2113.2
2016-Aug-18 12:33N 32°46' E 028°26'1312.9
2016-Aug-18 11:33N 32°57' E 028°18'33312.8
2016-Aug-17 09:28N 37°08' E 023°50'1213.3
2016-Aug-17 08:33N 37°20' E 023°50'1312.8
2016-Aug-17 07:34N 37°33' E 023°45'1212.0
2016-Aug-17 06:34N 37°44' E 023°40'9 9.0
2016-Aug-17 05:34N 37°50' E 023°32'1 0.7
2016-Aug-17 04:31N 37°50' E 023°31'0 0.0
2016-Aug-17 03:31N 37°50' E 023°31'0 0.0
2016-Aug-17 02:31N 37°50' E 023°31'0 0.0
2016-Aug-17 01:31N 37°50' E 023°31'0 0.1
2016-Aug-17 00:31N 37°50' E 023°31'0 0.1
2016-Aug-16 23:31N 37°50' E 023°31'0 0.0
2016-Aug-16 22:31N 37°50' E 023°31'0 0.0
2016-Aug-16 21:31N 37°50' E 023°31'0 0.0
2016-Aug-16 20:31N 37°50' E 023°31'0 0.0
2016-Aug-16 19:31N 37°50' E 023°31'0 0.1
2016-Aug-16 18:31N 37°50' E 023°31'0 0.1
2016-Aug-16 17:31N 37°50' E 023°31'0 0.0
2016-Aug-16 16:31N 37°50' E 023°31'0 0.2
2016-Aug-16 15:31N 37°50' E 023°31'0 0.1
2016-Aug-16 14:31N 37°50' E 023°31'0 0.2
2016-Aug-16 13:31N 37°50' E 023°31'0 0.1
2016-Aug-16 12:31N 37°50' E 023°31'0 0.0
2016-Aug-16 11:31N 37°50' E 023°31'0 0.1
2016-Aug-16 10:31N 37°50' E 023°31'4 3.9
2016-Aug-16 09:33N 37°53' E 023°34'6 5.7
2016-Aug-16 08:33N 37°58' E 023°33'4 4.0
2016-Aug-16 07:32N 38°01' E 023°36'0 0.0
2016-Aug-16 04:32N 38°01' E 023°36'0 0.0
2016-Aug-16 03:32N 38°01' E 023°36'0 0.0
2016-Aug-16 02:32N 38°01' E 023°36'0 0.0
2016-Aug-16 01:32N 38°01' E 023°36'0 0.0
2016-Aug-16 00:32N 38°01' E 023°36'0 0.0
2016-Aug-15 23:32N 38°01' E 023°36'0 0.0
2016-Aug-15 22:32N 38°01' E 023°36'0 0.0
2016-Aug-15 21:32N 38°01' E 023°36'0 0.0
2016-Aug-15 20:32N 38°01' E 023°36'0 0.0
2016-Aug-15 19:32N 38°01' E 023°36'0 0.0
2016-Aug-15 18:32N 38°01' E 023°36'0 0.0
2016-Aug-15 17:32N 38°01' E 023°36'0 0.0
2016-Aug-15 16:32N 38°01' E 023°36'0 0.0
2016-Aug-15 15:32N 38°01' E 023°36'0 0.0
2016-Aug-15 14:32N 38°01' E 023°36'0 0.0
2016-Aug-15 13:32N 38°01' E 023°36'0 0.0
2016-Aug-15 12:32N 38°01' E 023°36'0 0.0
2016-Aug-15 11:32N 38°01' E 023°36'0 0.0
2016-Aug-15 10:32N 38°01' E 023°36'0 0.0
2016-Aug-15 09:32N 38°01' E 023°36'0 0.0
2016-Aug-15 08:32N 38°01' E 023°36'0 0.0
2016-Aug-15 07:32N 38°01' E 023°36'0 0.0
2016-Aug-15 06:32N 38°01' E 023°36'0 0.0
2016-Aug-15 04:32N 38°01' E 023°36'0 0.0
2016-Aug-15 03:32N 38°01' E 023°36'0 0.0
2016-Aug-15 02:32N 38°01' E 023°36'0 0.0
2016-Aug-15 01:32N 38°01' E 023°36'0 0.0
2016-Aug-15 00:32N 38°01' E 023°36'0 0.0
2016-Aug-14 23:32N 38°01' E 023°36'0 0.0
2016-Aug-14 22:32N 38°01' E 023°36'0 0.0
2016-Aug-14 21:32N 38°01' E 023°36'0 0.0
2016-Aug-14 20:32N 38°01' E 023°36'0 0.0
2016-Aug-14 19:32N 38°01' E 023°36'0 0.0
2016-Aug-14 18:32N 38°01' E 023°36'0 0.0
2016-Aug-14 17:32N 38°01' E 023°36'0 0.0
2016-Aug-14 16:32N 38°01' E 023°36'0 0.0
2016-Aug-14 15:32N 38°01' E 023°36'0 0.0
2016-Aug-14 14:32N 38°01' E 023°36'0 0.0
2016-Aug-14 13:32N 38°01' E 023°36'0 0.0
2016-Aug-14 12:32N 38°01' E 023°36'0 0.0
2016-Aug-14 11:32N 38°01' E 023°36'0 0.0
2016-Aug-14 10:32N 38°01' E 023°36'0 0.0
2016-Aug-14 09:32N 38°01' E 023°36'0 0.0
2016-Aug-14 08:32N 38°01' E 023°36'0 0.0
2016-Aug-14 07:32N 38°01' E 023°36'0 0.0
2016-Aug-14 06:29N 38°01' E 023°36'3 1.7
2016-Aug-14 04:31N 38°01' E 023°31'0 0.0
2016-Aug-14 03:31N 38°01' E 023°31'0 0.0
2016-Aug-14 02:31N 38°01' E 023°31'0 0.0
2016-Aug-14 01:31N 38°01' E 023°31'0 0.0
2016-Aug-14 00:31N 38°01' E 023°31'0 0.0
2016-Aug-13 23:31N 38°01' E 023°31'0 0.0
2016-Aug-13 22:31N 38°01' E 023°31'0 0.0
2016-Aug-13 21:31N 38°01' E 023°31'0 0.0
2016-Aug-13 20:31N 38°01' E 023°31'0 0.0
2016-Aug-13 19:31N 38°01' E 023°31'0 0.0
2016-Aug-13 18:31N 38°01' E 023°31'0 0.0
2016-Aug-13 17:31N 38°01' E 023°31'2 2.3
2016-Aug-13 16:33N 37°59' E 023°33'  

Dump ship's entire track history